createdAt,value
2023-05-18T00:00:11.243Z,12.70
2023-05-18T00:05:56.832Z,12.60
2023-05-18T00:08:24.206Z,12.60
2023-05-18T00:08:32.984Z,12.70
2023-05-18T00:11:11.370Z,12.60
2023-05-18T00:13:53.147Z,12.50
2023-05-18T00:16:39.354Z,12.50
2023-05-18T00:22:18.437Z,12.40
2023-05-18T00:28:37.690Z,12.30
2023-05-18T00:33:55.188Z,12.10
2023-05-18T00:36:22.218Z,12.20
2023-05-18T00:38:49.280Z,12.00
2023-05-18T00:41:16.315Z,12.10
2023-05-18T00:43:43.374Z,12.10
2023-05-18T00:46:11.723Z,12.10
2023-05-18T00:48:38.926Z,12.00
2023-05-18T00:51:06.692Z,12.00
2023-05-18T00:53:33.887Z,11.90
2023-05-18T00:56:00.989Z,12.00
2023-05-18T00:58:28.040Z,11.90
2023-05-18T01:00:55.484Z,11.90
2023-05-18T01:03:22.953Z,11.80
2023-05-18T01:05:58.676Z,11.80
2023-05-18T01:08:28.003Z,11.80
2023-05-18T01:11:15.315Z,11.70
2023-05-18T01:13:58.772Z,11.70
2023-05-18T01:16:37.434Z,11.60
2023-05-18T01:19:16.728Z,11.60
2023-05-18T01:22:24.932Z,11.60
2023-05-18T01:24:59.696Z,11.50
2023-05-18T01:27:27.403Z,11.50
2023-05-18T01:29:56.381Z,11.50
2023-05-18T01:32:23.622Z,11.30
2023-05-18T01:34:50.711Z,11.50
2023-05-18T01:37:17.906Z,11.50
2023-05-18T01:39:44.936Z,11.50
2023-05-18T01:42:21.240Z,11.40
2023-05-18T01:45:11.974Z,11.40
2023-05-18T01:47:45.273Z,11.40
2023-05-18T01:50:22.882Z,11.60
2023-05-18T01:53:08.711Z,11.40
2023-05-18T01:55:38.038Z,11.60
2023-05-18T01:58:08.491Z,11.30
2023-05-18T02:00:36.529Z,11.30
2023-05-18T02:03:04.035Z,11.30
2023-05-18T02:05:31.562Z,11.20
2023-05-18T02:07:58.666Z,11.20
2023-05-18T02:10:46.872Z,11.10
2023-05-18T02:13:22.654Z,11.30
2023-05-18T02:16:07.365Z,11.00
2023-05-18T02:18:36.421Z,11.00
2023-05-18T02:21:04.444Z,11.00
2023-05-18T02:23:32.189Z,10.90
2023-05-18T02:25:59.404Z,10.90
2023-05-18T02:28:26.561Z,10.90
2023-05-18T02:31:17.033Z,11.00
2023-05-18T02:34:15.646Z,10.90
2023-05-18T02:37:09.888Z,10.80
2023-05-18T02:40:03.408Z,10.80
2023-05-18T02:42:51.028Z,10.80
2023-05-18T02:45:27.392Z,10.80
2023-05-18T02:48:05.015Z,10.70
2023-05-18T02:50:55.835Z,10.70
2023-05-18T02:53:46.819Z,10.80
2023-05-18T02:56:23.124Z,10.70
2023-05-18T02:59:08.646Z,10.70
2023-05-18T03:01:50.486Z,10.70
2023-05-18T03:04:41.843Z,10.70
2023-05-18T03:07:28.157Z,10.60
2023-05-18T03:10:30.833Z,10.60
2023-05-18T03:13:58.308Z,10.60
2023-05-18T03:16:44.206Z,10.40
2023-05-18T03:22:21.604Z,10.60
2023-05-18T03:33:52.765Z,10.60
2023-05-18T03:39:39.411Z,10.50
2023-05-18T03:42:22.676Z,10.40
2023-05-18T03:45:11.844Z,10.50
2023-05-18T03:54:36.132Z,10.40
2023-05-18T03:57:36.736Z,10.40
2023-05-18T04:00:28.168Z,10.20
2023-05-18T04:06:25.310Z,10.20
2023-05-18T04:09:37.935Z,10.20
2023-05-18T04:12:30.253Z,10.30
2023-05-18T04:15:25.814Z,10.20
2023-05-18T04:18:19.028Z,10.20
2023-05-18T04:21:10.923Z,10.30
2023-05-18T04:23:51.553Z,10.10
2023-05-18T04:32:03.339Z,10.10
2023-05-18T04:34:54.075Z,10.00
2023-05-18T04:37:21.043Z,10.20
2023-05-18T04:39:48.074Z,10.00
2023-05-18T04:42:18.562Z,10.00
2023-05-18T04:44:45.676Z,10.00
2023-05-18T04:47:12.830Z,10.20
2023-05-18T04:49:39.855Z,10.10
2023-05-18T04:52:14.930Z,10.10
2023-05-18T04:54:41.974Z,10.10
2023-05-18T04:57:09.091Z,10.10
2023-05-18T04:59:37.024Z,10.20
2023-05-18T05:02:05.288Z,10.20
2023-05-18T05:04:32.286Z,10.20
2023-05-18T05:06:59.401Z,10.20
2023-05-18T05:09:26.474Z,10.20
2023-05-18T05:12:10.089Z,10.30
2023-05-18T05:14:37.289Z,10.30
2023-05-18T05:17:04.815Z,10.40
2023-05-18T05:19:31.896Z,10.40
2023-05-18T05:21:59.005Z,10.40
2023-05-18T05:24:26.111Z,10.50
2023-05-18T05:26:53.219Z,10.50
2023-05-18T05:29:20.236Z,10.50
2023-05-18T05:31:47.267Z,10.60
2023-05-18T05:34:14.427Z,10.60
2023-05-18T05:36:42.316Z,10.60
2023-05-18T05:39:09.796Z,10.70
2023-05-18T05:41:38.353Z,10.70
2023-05-18T05:44:05.562Z,10.70
2023-05-18T05:46:32.611Z,10.80
2023-05-18T05:49:00.452Z,10.90
2023-05-18T05:51:28.099Z,10.80
2023-05-18T05:53:55.544Z,10.90
2023-05-18T05:56:23.047Z,11.00
2023-05-18T05:58:51.983Z,11.10
2023-05-18T06:01:19.127Z,11.10
2023-05-18T06:03:46.496Z,11.20
2023-05-18T06:06:13.658Z,11.20
2023-05-18T06:08:41.143Z,11.30
2023-05-18T06:11:26.445Z,11.30
2023-05-18T06:16:47.922Z,11.40
2023-05-18T06:22:08.198Z,11.60
2023-05-18T06:24:35.154Z,11.70
2023-05-18T06:27:02.446Z,11.70
2023-05-18T06:29:30.776Z,11.80
2023-05-18T06:32:03.817Z,11.90
2023-05-18T06:34:47.183Z,12.00
2023-05-18T06:37:38.855Z,12.10
2023-05-18T06:40:08.833Z,12.10
2023-05-18T06:42:40.600Z,12.30
2023-05-18T06:45:08.260Z,12.30
2023-05-18T06:47:43.447Z,12.40
2023-05-18T06:50:17.177Z,12.50
2023-05-18T06:55:46.225Z,12.70
2023-05-18T06:58:26.719Z,12.80
2023-05-18T07:04:53.939Z,13.00
2023-05-18T07:07:26.609Z,13.20
2023-05-18T07:09:54.992Z,13.20
2023-05-18T07:12:22.609Z,13.30
2023-05-18T07:14:49.466Z,13.40
2023-05-18T07:17:16.491Z,13.60
2023-05-18T07:24:25.108Z,13.70
2023-05-18T07:46:49.656Z,14.60
2023-05-18T07:53:05.951Z,14.90
2023-05-18T08:00:26.717Z,15.30
2023-05-18T08:13:48.579Z,15.90
2023-05-18T08:57:09.329Z,17.70
2023-05-18T09:00:04.399Z,17.80
2023-05-18T09:09:21.465Z,18.00
2023-05-18T09:18:53.532Z,17.90
2023-05-18T09:21:46.558Z,18.10
2023-05-18T09:28:17.887Z,18.20
2023-05-18T09:31:17.269Z,18.30
2023-05-18T11:12:10.031Z,19.70
2023-05-18T11:15:56.148Z,19.80
2023-05-18T11:19:27.943Z,19.80
2023-05-18T11:22:35.559Z,19.80
2023-05-18T11:30:15.403Z,19.80
2023-05-18T11:33:29.380Z,19.80
2023-05-18T11:40:08.436Z,19.80
2023-05-18T11:46:46.049Z,20.10
2023-05-18T11:53:51.780Z,20.10
2023-05-18T11:56:30.587Z,20.30
2023-05-18T11:59:53.026Z,20.30
2023-05-18T12:03:33.246Z,20.40
2023-05-18T12:18:38.687Z,20.80
2023-05-18T12:24:38.476Z,21.10
2023-05-18T12:34:39.006Z,21.20
2023-05-18T12:40:56.270Z,21.10
2023-05-18T12:44:28.244Z,21.20
2023-05-18T12:47:51.545Z,21.20
2023-05-18T12:50:35.151Z,21.20
2023-05-18T12:54:09.062Z,21.20
2023-05-18T12:57:21.538Z,21.30
2023-05-18T13:00:42.162Z,21.50
2023-05-18T13:03:29.279Z,21.70
2023-05-18T13:06:35.261Z,22.00
2023-05-18T13:13:17.068Z,22.40
2023-05-18T13:20:24.487Z,22.80
2023-05-18T13:26:12.454Z,23.00
2023-05-18T13:29:47.935Z,23.10
2023-05-18T13:32:51.211Z,23.30
2023-05-18T13:36:06.185Z,23.50
2023-05-18T13:42:36.311Z,23.40
2023-05-18T13:45:29.104Z,23.40
2023-05-18T13:48:19.765Z,23.40
2023-05-18T13:51:41.595Z,23.30
2023-05-18T13:55:11.888Z,23.30
2023-05-18T13:58:10.714Z,23.40
2023-05-18T14:04:14.137Z,23.50
2023-05-18T14:07:43.735Z,23.60
2023-05-18T14:14:46.064Z,23.40
2023-05-18T14:17:31.558Z,23.50
2023-05-18T14:23:31.135Z,23.30
2023-05-18T14:26:38.812Z,23.00
2023-05-18T14:32:50.029Z,23.00
2023-05-18T14:33:18.224Z,22.90
2023-05-18T14:36:03.660Z,22.80
2023-05-18T14:40:27.036Z,22.80
2023-05-18T14:42:37.004Z,22.70
2023-05-18T14:51:12.186Z,22.50
2023-05-18T14:54:04.054Z,22.50
2023-05-18T14:57:09.162Z,22.40
2023-05-18T15:03:13.808Z,22.40
2023-05-18T15:06:34.291Z,22.40
2023-05-18T15:13:14.333Z,22.30
2023-05-18T15:35:04.173Z,22.20
2023-05-18T15:37:52.602Z,21.80
2023-05-18T15:40:54.180Z,21.80
2023-05-18T15:43:48.852Z,21.70
2023-05-18T15:46:51.725Z,21.70
2023-05-18T15:50:00.799Z,21.70
2023-05-18T15:53:09.042Z,21.60
2023-05-18T15:56:18.734Z,21.70
2023-05-18T16:06:16.157Z,21.60
2023-05-18T16:09:07.471Z,21.60
2023-05-18T16:11:53.855Z,21.50
2023-05-18T16:14:58.581Z,21.50
2023-05-18T16:18:10.408Z,21.40
2023-05-18T16:21:01.674Z,21.40
2023-05-18T16:23:53.587Z,21.40
2023-05-18T16:27:15.402Z,21.40
2023-05-18T16:30:02.540Z,21.40
2023-05-18T16:36:15.157Z,21.40
2023-05-18T16:39:17.262Z,21.40
2023-05-18T16:45:28.779Z,21.40
2023-05-18T16:48:42.284Z,21.40
2023-05-18T16:51:47.881Z,21.40
2023-05-18T16:54:21.923Z,21.40
2023-05-18T16:56:57.202Z,21.40
2023-05-18T17:02:38.157Z,21.30
2023-05-18T17:09:23.058Z,21.20
2023-05-18T17:12:10.414Z,21.20
2023-05-18T17:15:20.937Z,21.20
2023-05-18T17:25:03.872Z,21.10
2023-05-18T17:28:14.942Z,21.10
2023-05-18T17:34:49.401Z,21.00
2023-05-18T17:38:14.805Z,21.00
2023-05-18T17:41:20.869Z,20.90
2023-05-18T17:44:36.661Z,20.90
2023-05-18T17:54:35.730Z,21.00
2023-05-18T18:00:41.060Z,20.70
2023-05-18T18:03:35.021Z,20.60
2023-05-18T18:06:35.302Z,20.60
2023-05-18T18:09:44.616Z,20.30
2023-05-18T18:12:51.611Z,20.60
2023-05-18T18:16:16.555Z,20.50
2023-05-18T18:19:12.616Z,20.40
2023-05-18T18:22:01.920Z,20.40
2023-05-18T18:25:03.132Z,20.30
2023-05-18T18:33:43.986Z,20.30
2023-05-18T18:47:02.986Z,20.10
2023-05-18T19:05:08.412Z,19.70
2023-05-18T19:15:59.837Z,19.80
2023-05-18T19:19:48.985Z,19.80
2023-05-18T19:22:45.252Z,20.00
2023-05-18T19:30:03.455Z,19.40
2023-05-18T19:33:54.052Z,19.60
2023-05-18T19:45:11.539Z,19.50
2023-05-18T20:06:36.716Z,19.30
2023-05-18T20:14:07.316Z,19.70
2023-05-18T20:22:37.667Z,19.10
2023-05-18T20:30:51.746Z,19.00
2023-05-18T20:49:13.419Z,18.80
2023-05-18T20:59:34.962Z,18.80
2023-05-18T21:02:50.481Z,18.80
2023-05-18T21:09:44.798Z,18.70
2023-05-18T21:38:10.377Z,18.50
2023-05-18T21:48:36.626Z,18.40
2023-05-18T21:55:04.942Z,18.10
2023-05-18T22:05:07.071Z,18.30
2023-05-18T22:08:45.325Z,18.30
2023-05-18T22:11:29.852Z,18.30
2023-05-18T22:40:48.721Z,18.10
2023-05-18T22:42:11.395Z,18.10
2023-05-18T22:43:29.405Z,18.10
2023-05-18T22:54:51.832Z,18.00
2023-05-18T23:02:06.167Z,17.80
2023-05-18T23:05:59.360Z,17.90
2023-05-18T23:13:38.906Z,17.80
2023-05-18T23:22:19.472Z,17.80
2023-05-18T23:23:53.033Z,17.80
2023-05-18T23:27:06.593Z,17.70
2023-05-18T23:30:43.880Z,17.70
2023-05-18T23:37:05.581Z,17.60
2023-05-18T23:40:27.074Z,17.60
2023-05-18T23:51:24.333Z,17.60
